Time;durP1;ratioP1;P1;durP2;ratioP2;P2;SDS_P1;SDS_P2;PMS_P1;PMS_P2;Temp;Humidity;BMP_temperature;BMP_pressure;BME280_temperature;BME280_humidity;BME280_pressure;Samples;Min_cycle;Max_cycle;Signal;HPM_P1;HPM_P2
2022/06/05 00:02:19;;;;;;;12.95;7.35;;;;;;;18.27;80.52;101684.44;5017398;28;20025;-48
2022/06/05 00:04:53;;;;;;;13.05;7.35;;;;;;;18.27;80.77;101687.97;5019988;28;20021;-47
2022/06/05 00:07:51;;;;;;;14.95;7.80;;;;;;;18.30;80.66;101678.66;5018466;28;20021;-47
2022/06/05 00:10:27;;;;;;;13.85;8.15;;;;;;;18.26;80.58;101682.75;5019753;28;20129;-47
2022/06/05 00:13:14;;;;;;;15.27;7.78;;;;;;;18.19;80.60;101671.88;5019230;28;20087;-48
2022/06/05 00:15:39;;;;;;;12.02;7.60;;;;;;;18.20;81.50;101668.16;5019167;28;20029;-44
2022/06/05 00:18:05;;;;;;;13.60;7.90;;;;;;;18.18;81.95;101650.47;5018406;28;20361;-44
2022/06/05 00:20:31;;;;;;;11.95;7.18;;;;;;;18.17;81.65;101656.88;5017335;28;20032;-47
2022/06/05 00:22:57;;;;;;;13.07;7.95;;;;;;;18.14;81.68;101651.84;5018170;28;20384;-48
2022/06/05 00:25:30;;;;;;;16.35;8.15;;;;;;;18.15;81.83;101657.06;5018428;28;20026;-45
2022/06/05 00:28:07;;;;;;;15.48;7.88;;;;;;;18.14;82.00;101663.50;5018169;28;20171;-47
2022/06/05 00:30:41;;;;;;;11.85;7.80;;;;;;;18.14;81.88;101649.97;5016937;28;20274;-47
2022/06/05 00:33:12;;;;;;;14.23;7.93;;;;;;;18.13;81.94;101645.63;5016372;28;20444;-48
2022/06/05 00:36:01;;;;;;;15.20;8.70;;;;;;;18.14;81.88;101646.44;5017897;28;20098;-44
2022/06/05 00:38:37;;;;;;;15.18;8.05;;;;;;;18.13;82.54;101647.50;5017190;28;20083;-48
2022/06/05 00:41:27;;;;;;;17.23;7.85;;;;;;;18.10;82.01;101632.47;5017117;28;20472;-48
2022/06/05 00:43:58;;;;;;;14.25;8.55;;;;;;;18.01;82.73;101630.94;5017709;28;20030;-49
2022/06/05 00:46:24;;;;;;;15.23;8.50;;;;;;;17.99;82.76;101632.97;5016558;28;20029;-47
2022/06/05 00:48:50;;;;;;;12.15;8.15;;;;;;;17.95;83.17;101626.28;5016707;28;20025;-44
2022/06/05 00:51:15;;;;;;;12.50;8.30;;;;;;;17.94;83.27;101628.16;5017370;28;20021;-44
2022/06/05 00:53:40;;;;;;;14.45;8.10;;;;;;;17.92;83.14;101623.94;5017391;28;20025;-48
2022/06/05 00:56:09;;;;;;;11.00;7.78;;;;;;;17.89;83.42;101626.00;5017657;28;20371;-48
2022/06/05 00:58:35;;;;;;;18.90;8.60;;;;;;;17.87;83.09;101628.06;5017437;28;20034;-45
2022/06/05 01:01:01;;;;;;;17.67;8.27;;;;;;;17.88;83.52;101623.50;5016439;28;20026;-46
2022/06/05 01:03:27;;;;;;;15.07;8.40;;;;;;;17.86;83.22;101620.13;5015479;28;20043;-45
2022/06/05 01:05:52;;;;;;;13.40;7.55;;;;;;;17.83;83.21;101624.03;5017191;28;20496;-45
2022/06/05 01:08:18;;;;;;;14.48;8.80;;;;;;;17.81;83.05;101614.47;5016700;28;20466;-47
2022/06/05 01:10:58;;;;;;;11.90;7.95;;;;;;;17.81;83.33;101617.16;5016266;28;20336;-49
2022/06/05 01:13:39;;;;;;;15.13;8.73;;;;;;;17.82;83.54;101618.81;5017019;28;20119;-44
2022/06/05 01:16:26;;;;;;;16.00;8.65;;;;;;;17.78;83.52;101606.72;5016179;28;20040;-46
2022/06/05 01:19:17;;;;;;;15.30;8.23;;;;;;;17.76;84.02;101601.50;5016547;28;20064;-48
2022/06/05 01:22:20;;;;;;;14.00;8.95;;;;;;;17.78;82.69;101607.56;5017478;28;20056;-47
2022/06/05 01:25:17;;;;;;;13.85;8.90;;;;;;;17.77;83.35;101614.00;5005081;28;20909;-46
2022/06/05 01:27:49;;;;;;;15.17;8.50;;;;;;;17.76;84.00;101606.91;4978940;28;1114737;-46
2022/06/05 01:30:19;;;;;;;17.85;8.70;;;;;;;17.76;84.24;101606.09;5016639;28;20759;-45
2022/06/05 01:32:54;;;;;;;15.05;8.57;;;;;;;17.76;83.64;101608.78;5017432;28;20033;-48
2022/06/05 01:36:07;;;;;;;16.00;8.82;;;;;;;17.75;83.14;101601.69;5017899;28;20030;-43
2022/06/05 01:38:50;;;;;;;15.10;8.63;;;;;;;17.77;83.64;101610.44;5004078;28;20025;-47
2022/06/05 01:41:23;;;;;;;16.95;8.68;;;;;;;17.74;84.01;101625.19;5018174;28;20029;-46
2022/06/05 01:43:52;;;;;;;16.00;9.10;;;;;;;17.70;83.55;101640.09;5017484;28;20325;-45
2022/06/05 01:46:29;;;;;;;15.07;8.60;;;;;;;17.73;83.16;101642.41;5016755;28;20048;-44
2022/06/05 01:49:05;;;;;;;14.05;8.90;;;;;;;17.78;82.86;101653.47;5017254;28;20021;-47
2022/06/05 01:51:42;;;;;;;15.32;8.50;;;;;;;17.72;82.85;101681.28;5011030;28;20029;-46
2022/06/05 01:54:13;;;;;;;14.63;8.73;;;;;;;17.73;83.29;101701.03;5017464;28;20029;-47
2022/06/05 01:56:44;;;;;;;19.08;8.63;;;;;;;17.67;83.97;101678.31;5017649;28;20040;-45
2022/06/05 01:59:18;;;;;;;16.45;8.63;;;;;;;17.70;83.92;101627.44;5035206;28;20025;-47
2022/06/05 02:01:53;;;;;;;16.88;8.48;;;;;;;17.73;83.55;101606.47;5022496;28;20408;-49
2022/06/05 02:04:23;;;;;;;14.40;8.32;;;;;;;17.74;83.15;101610.84;5017105;28;20480;-45
2022/06/05 02:07:00;;;;;;;16.13;8.23;;;;;;;17.76;82.61;101633.94;5017019;28;20150;-43
2022/06/05 02:09:34;;;;;;;12.93;8.23;;;;;;;17.78;82.40;101634.56;5027798;28;20111;-45
2022/06/05 02:12:03;;;;;;;16.60;8.73;;;;;;;17.80;82.31;101616.31;5034283;28;20507;-45
2022/06/05 02:14:29;;;;;;;17.70;8.90;;;;;;;17.87;81.59;101601.06;5027144;28;20065;-49
2022/06/05 02:16:55;;;;;;;15.25;8.88;;;;;;;17.86;82.71;101590.41;5016358;28;20044;-45
2022/06/05 02:19:22;;;;;;;12.07;8.48;;;;;;;17.84;82.65;101571.69;5017638;28;20475;-47
2022/06/05 02:21:48;;;;;;;15.77;8.75;;;;;;;17.82;82.64;101579.16;5012857;28;20163;-44
2022/06/05 02:24:14;;;;;;;14.63;8.02;;;;;;;17.77;82.55;101564.50;5013738;28;20029;-47
2022/06/05 02:26:41;;;;;;;14.40;8.20;;;;;;;17.77;83.73;101556.41;5016275;28;20026;-48
2022/06/05 02:29:26;;;;;;;15.95;8.20;;;;;;;17.81;83.07;101546.91;5016076;28;20106;-46
2022/06/05 02:32:12;;;;;;;11.75;8.32;;;;;;;17.75;83.52;101551.19;5015024;28;20067;-47
2022/06/05 02:35:05;;;;;;;14.63;8.57;;;;;;;17.70;83.30;101540.97;5016670;28;20274;-46
2022/06/05 02:37:34;;;;;;;15.18;8.52;;;;;;;17.64;83.31;101544.44;5013955;28;20093;-47
2022/06/05 02:40:25;;;;;;;13.18;8.38;;;;;;;17.65;83.50;101551.53;5014701;28;20080;-47
2022/06/05 02:43:00;;;;;;;11.73;8.10;;;;;;;17.63;84.32;101531.94;5016634;28;20028;-47
2022/06/05 02:45:45;;;;;;;15.27;8.73;;;;;;;17.63;85.23;101525.72;5015196;28;20498;-47
2022/06/05 02:48:19;;;;;;;14.40;8.95;;;;;;;17.55;84.39;101515.88;5031268;28;20523;-46
2022/06/05 02:50:54;;;;;;;12.90;8.88;;;;;;;17.49;84.69;101512.06;5016509;28;20021;-45
2022/06/05 02:53:19;;;;;;;14.20;8.60;;;;;;;17.43;84.99;101509.28;5014315;28;20036;-46
2022/06/05 02:55:45;;;;;;;13.60;8.68;;;;;;;17.38;85.45;101503.63;5035129;28;20396;-46
2022/06/05 02:58:12;;;;;;;18.70;9.30;;;;;;;17.39;85.23;101489.09;5036448;28;20438;-48
2022/06/05 03:00:38;;;;;;;16.05;9.38;;;;;;;17.37;85.75;101483.88;5035623;28;20021;-47
2022/06/05 03:05:49;;;;;;;18.85;9.30;;;;;;;17.25;85.69;101470.03;5036525;28;20090;-48
2022/06/05 03:08:16;;;;;;;16.05;9.63;;;;;;;17.20;85.74;101461.69;5035983;28;20511;-46
2022/06/05 03:10:42;;;;;;;19.13;9.70;;;;;;;17.19;86.04;101459.16;5036923;28;20021;-48
2022/06/05 03:13:08;;;;;;;15.65;9.43;;;;;;;17.17;86.12;101451.25;5015742;28;20483;-48
2022/06/05 03:15:34;;;;;;;17.60;9.98;;;;;;;17.11;86.62;101442.06;5034236;28;20017;-43
2022/06/05 03:18:00;;;;;;;15.07;10.02;;;;;;;17.08;87.52;101442.44;5035117;28;20029;-44
2022/06/05 03:20:25;;;;;;;22.98;10.27;;;;;;;16.98;87.28;101439.22;5035949;28;20790;-45
2022/06/05 03:22:51;;;;;;;16.75;9.70;;;;;;;16.95;88.10;101443.13;5035224;28;20080;-45
2022/06/05 03:25:19;;;;;;;20.88;10.20;;;;;;;16.92;88.27;101448.03;5035894;28;20104;-44
2022/06/05 03:27:46;;;;;;;18.25;9.55;;;;;;;16.90;87.91;101445.53;5034735;28;20045;-47
2022/06/05 03:30:13;;;;;;;17.13;9.10;;;;;;;16.88;88.29;101436.78;5034425;28;20064;-48
2022/06/05 03:32:38;;;;;;;18.75;10.52;;;;;;;16.90;88.42;101445.53;5034691;28;20847;-45
2022/06/05 03:35:05;;;;;;;17.92;9.38;;;;;;;16.89;88.68;101437.66;5035383;28;20278;-46
2022/06/05 03:37:31;;;;;;;18.48;10.18;;;;;;;16.85;89.20;101429.06;5035381;28;20040;-47
2022/06/05 03:39:56;;;;;;;15.77;10.15;;;;;;;16.81;89.35;101426.94;5035411;28;20024;-48
2022/06/05 03:42:22;;;;;;;20.58;10.48;;;;;;;16.80;89.63;101428.78;5029492;28;20295;-46
2022/06/05 03:44:48;;;;;;;18.40;10.20;;;;;;;16.78;90.01;101431.69;5030203;28;20613;-44
2022/06/05 03:47:13;;;;;;;16.33;10.07;;;;;;;16.71;90.17;101436.13;5035620;28;20052;-43
2022/06/05 03:49:39;;;;;;;21.52;10.25;;;;;;;16.69;90.18;101445.44;5035444;28;20057;-47
2022/06/05 03:52:06;;;;;;;18.80;10.38;;;;;;;16.69;90.78;101456.25;5034494;28;20035;-47
2022/06/05 03:54:33;;;;;;;19.70;10.43;;;;;;;16.63;91.45;101463.19;5034787;28;20025;-46
2022/06/05 03:57:00;;;;;;;18.30;10.38;;;;;;;16.63;91.23;101462.38;5019806;28;20451;-44
2022/06/05 03:59:25;;;;;;;16.88;10.45;;;;;;;16.64;91.79;101472.97;5024410;28;20391;-47
2022/06/05 04:01:50;;;;;;;20.67;10.10;;;;;;;16.68;91.70;101468.03;5030231;28;20029;-45
2022/06/05 04:04:16;;;;;;;15.43;10.43;;;;;;;16.61;91.58;101467.94;5028737;28;20032;-43
2022/06/05 04:06:41;;;;;;;19.20;10.40;;;;;;;16.65;91.85;101471.09;5010005;28;20034;-45
2022/06/05 04:09:08;;;;;;;18.70;9.95;;;;;;;16.67;92.41;101469.91;5010829;28;20184;-45
2022/06/05 04:11:36;;;;;;;19.13;10.95;;;;;;;16.69;92.38;101473.25;5012931;28;20062;-47
2022/06/05 04:14:02;;;;;;;23.73;10.65;;;;;;;16.71;91.85;101468.50;5013345;28;20207;-46
2022/06/05 04:16:31;;;;;;;17.00;10.10;;;;;;;16.67;91.68;101455.59;5010068;28;20312;-46
2022/06/05 04:18:58;;;;;;;22.58;11.02;;;;;;;16.66;91.49;101456.59;5018704;28;20268;-45
2022/06/05 04:21:26;;;;;;;17.42;10.10;;;;;;;16.64;91.51;101455.97;5028298;28;20199;-43
2022/06/05 04:23:52;;;;;;;19.75;10.77;;;;;;;16.64;92.13;101461.34;5022271;28;20021;-47
2022/06/05 04:26:21;;;;;;;19.45;10.82;;;;;;;16.60;92.34;101450.09;5026706;28;20029;-48
2022/06/05 04:28:47;;;;;;;17.23;10.88;;;;;;;16.61;92.52;101446.38;5032757;28;20060;-43
2022/06/05 04:31:24;;;;;;;18.60;11.20;;;;;;;16.58;92.12;101444.03;5030440;28;20404;-47
2022/06/05 04:33:51;;;;;;;16.48;10.35;;;;;;;16.57;92.13;101435.13;5030138;28;20052;-44
2022/06/05 04:36:17;;;;;;;19.23;11.07;;;;;;;16.57;92.36;101440.50;5011591;28;20396;-45
2022/06/05 04:38:43;;;;;;;19.00;11.00;;;;;;;16.57;91.90;101439.69;5015239;28;20112;-47
2022/06/05 04:41:09;;;;;;;19.20;10.63;;;;;;;16.54;91.91;101451.66;5014402;28;20045;-44
2022/06/05 04:43:34;;;;;;;20.10;10.75;;;;;;;16.54;92.50;101440.06;5015049;28;20415;-46
2022/06/05 04:46:00;;;;;;;17.92;10.77;;;;;;;16.57;92.15;101442.38;5014811;28;20029;-45
2022/06/05 04:48:25;;;;;;;20.50;11.02;;;;;;;16.57;92.36;101439.69;5018203;28;20040;-44
2022/06/05 04:50:50;;;;;;;22.75;10.93;;;;;;;16.57;91.81;101434.28;5018475;28;20029;-46
2022/06/05 04:53:16;;;;;;;18.80;11.02;;;;;;;16.50;92.00;101433.38;5018260;28;20033;-70
2022/06/05 04:55:41;;;;;;;17.48;10.90;;;;;;;16.54;92.25;101434.66;5017048;28;20029;-44
2022/06/05 04:58:06;;;;;;;21.75;10.90;;;;;;;16.50;92.02;101433.38;5018110;28;20100;-43
2022/06/05 05:00:31;;;;;;;19.50;11.60;;;;;;;16.50;92.81;101434.19;5017884;28;20017;-45
2022/06/05 05:02:57;;;;;;;22.48;11.32;;;;;;;16.47;92.61;101434.56;5029885;28;20112;-45
2022/06/05 05:05:23;;;;;;;22.77;11.43;;;;;;;16.48;93.10;101435.38;5038166;28;20514;-44
2022/06/05 05:07:48;;;;;;;21.65;11.32;;;;;;;16.46;93.69;101440.13;5038048;28;20020;-44
2022/06/05 05:10:14;;;;;;;23.08;10.38;;;;;;;16.47;93.31;101433.72;5038755;28;20079;-43
2022/06/05 05:12:40;;;;;;;18.40;11.18;;;;;;;16.49;92.95;101432.50;5052957;28;20463;-43
2022/06/05 05:15:07;;;;;;;19.77;11.23;;;;;;;16.48;93.12;101435.38;5037323;28;20396;-47
2022/06/05 05:17:32;;;;;;;18.05;11.27;;;;;;;16.46;94.03;101429.34;5037296;28;20041;-44
2022/06/05 05:19:58;;;;;;;23.20;10.98;;;;;;;16.44;93.55;101434.94;5038274;28;20017;-44
2022/06/05 05:22:24;;;;;;;23.27;11.43;;;;;;;16.45;94.22;101441.19;5033894;28;20423;-45
2022/06/05 05:24:49;;;;;;;18.23;11.18;;;;;;;16.44;93.87;101434.09;5038197;28;20444;-48
2022/06/05 05:27:14;;;;;;;18.98;11.57;;;;;;;16.38;93.85;101427.59;5035640;28;20064;-43
2022/06/05 05:29:40;;;;;;;18.02;11.30;;;;;;;16.41;93.87;101435.28;5037892;28;20103;-46
2022/06/05 05:32:08;;;;;;;22.65;11.38;;;;;;;16.43;94.07;101438.66;5030393;28;20401;-44
2022/06/05 05:34:33;;;;;;;19.35;11.18;;;;;;;16.44;92.97;101445.72;5038602;28;20028;-46
2022/06/05 05:36:58;;;;;;;18.77;11.20;;;;;;;16.46;93.03;101434.75;5037324;28;20396;-43
2022/06/05 05:42:09;;;;;;;22.15;11.80;;;;;;;16.52;92.42;101442.94;5037953;28;20068;-46
2022/06/05 05:44:51;;;;;;;15.75;11.32;;;;;;;16.55;92.42;101437.16;5037144;28;20032;-46
2022/06/05 05:47:19;;;;;;;21.15;11.55;;;;;;;16.56;92.13;101428.06;5037119;28;20029;-46
2022/06/05 05:49:45;;;;;;;22.75;11.45;;;;;;;16.56;92.15;101425.38;5037442;28;20025;-45
2022/06/05 05:52:11;;;;;;;21.52;11.70;;;;;;;16.63;91.85;101441.63;5036729;28;20116;-48
2022/06/05 05:54:37;;;;;;;16.13;11.30;;;;;;;16.67;91.45;101434.84;5025097;28;20075;-46
2022/06/05 05:57:04;;;;;;;23.55;11.85;;;;;;;16.70;90.97;101434.47;5033845;28;20069;-45
2022/06/05 05:59:30;;;;;;;19.30;11.57;;;;;;;16.77;90.57;101434.56;5032973;28;20028;-48
2022/06/05 06:01:56;;;;;;;18.02;12.10;;;;;;;16.82;89.47;101431.28;5032763;28;20025;-46
2022/06/05 06:04:21;;;;;;;20.98;11.68;;;;;;;16.88;89.17;101425.19;5033469;28;20025;-47
2022/06/05 06:06:50;;;;;;;16.42;11.07;;;;;;;16.95;88.39;101412.59;5033228;28;20033;-44
2022/06/05 06:09:17;;;;;;;20.38;11.73;;;;;;;17.03;87.25;101412.50;5034619;28;20040;-44
2022/06/05 06:11:42;;;;;;;18.38;11.50;;;;;;;17.09;86.90;101410.88;5018254;28;20025;-44
2022/06/05 06:14:08;;;;;;;20.52;11.40;;;;;;;17.12;85.27;101405.97;5016397;28;20213;-45
2022/06/05 06:16:33;;;;;;;21.85;10.82;;;;;;;17.22;84.29;101413.72;5016479;28;20608;-44
2022/06/05 06:18:59;;;;;;;19.73;11.27;;;;;;;17.28;82.75;101404.88;5016135;28;20029;-45
2022/06/05 06:21:24;;;;;;;18.10;11.18;;;;;;;17.42;82.14;101405.84;5009534;28;20030;-43
2022/06/05 06:23:50;;;;;;;19.88;11.93;;;;;;;17.51;81.21;101398.44;5012884;28;20126;-46
2022/06/05 06:26:16;;;;;;;17.15;11.95;;;;;;;17.53;80.60;101391.84;5017408;28;20032;-45
2022/06/05 06:28:41;;;;;;;18.23;11.60;;;;;;;17.61;80.34;101395.44;5016626;28;20049;-46
2022/06/05 06:31:13;;;;;;;16.90;11.77;;;;;;;17.66;79.99;101380.28;5017201;28;20112;-45
2022/06/05 06:33:39;;;;;;;17.00;12.25;;;;;;;17.75;80.18;101380.16;5016629;28;20029;-44
2022/06/05 06:36:09;;;;;;;17.88;11.93;;;;;;;17.82;79.79;101379.19;5016155;28;20553;-45
2022/06/05 06:38:35;;;;;;;17.10;11.73;;;;;;;17.91;79.17;101379.91;5016491;28;20159;-48
2022/06/05 06:41:05;;;;;;;18.98;12.15;;;;;;;18.01;79.61;101376.88;5016872;28;20032;-43
2022/06/05 06:43:32;;;;;;;26.77;12.38;;;;;;;18.10;77.34;101378.38;5013947;28;20021;-44
2022/06/05 06:45:58;;;;;;;19.13;12.25;;;;;;;18.18;77.49;101370.13;5016366;28;20021;-45
2022/06/05 06:48:24;;;;;;;19.63;12.45;;;;;;;18.29;77.51;101362.47;5015724;28;20021;-48
2022/06/05 06:50:52;;;;;;;19.23;11.63;;;;;;;18.42;76.28;101354.44;5016459;28;20484;-43
2022/06/05 06:53:18;;;;;;;18.73;11.93;;;;;;;18.51;75.90;101345.09;5016150;28;20497;-44
2022/06/05 06:55:43;;;;;;;18.33;11.82;;;;;;;18.64;74.57;101344.34;5017169;28;20052;-44
2022/06/05 06:58:08;;;;;;;21.35;11.50;;;;;;;18.71;73.51;101342.47;5016243;28;20083;-43
2022/06/05 07:00:34;;;;;;;20.90;10.85;;;;;;;18.78;73.33;101334.38;5024826;28;20493;-49
2022/06/05 07:02:59;;;;;;;15.32;11.45;;;;;;;18.86;73.31;101339.66;5031791;28;20051;-44
2022/06/05 07:05:24;;;;;;;19.33;11.10;;;;;;;18.88;72.93;101332.16;5024775;28;20056;-45
2022/06/05 07:07:49;;;;;;;23.05;10.80;;;;;;;18.95;72.49;101322.16;5024755;28;20017;-47
2022/06/05 07:10:15;;;;;;;17.35;11.02;;;;;;;19.01;72.47;101315.13;5026670;28;20040;-46
2022/06/05 07:12:40;;;;;;;15.43;11.43;;;;;;;19.05;72.30;101323.66;5022740;28;20049;-46
2022/06/05 07:15:06;;;;;;;13.73;11.00;;;;;;;19.12;71.90;101329.91;5021923;28;20090;-46
2022/06/05 07:17:32;;;;;;;15.82;10.95;;;;;;;19.16;71.35;101325.75;5029937;28;20032;-45
2022/06/05 07:19:57;;;;;;;20.27;11.63;;;;;;;19.22;71.21;101315.97;5027352;28;20491;-45
2022/06/05 07:22:23;;;;;;;17.13;11.38;;;;;;;19.37;71.52;101317.44;5031564;28;20031;-46
2022/06/05 07:24:48;;;;;;;17.30;11.75;;;;;;;19.51;71.92;101307.44;5033131;28;20268;-46
2022/06/05 07:27:14;;;;;;;16.75;11.20;;;;;;;19.67;71.29;101316.16;5010866;28;20064;-44
2022/06/05 07:29:39;;;;;;;17.17;11.20;;;;;;;19.87;71.03;101322.41;5015400;28;20332;-48
2022/06/05 07:32:05;;;;;;;17.63;11.48;;;;;;;19.99;69.22;101319.06;5015223;28;20033;-43
2022/06/05 07:34:30;;;;;;;17.52;11.82;;;;;;;20.08;69.66;101313.22;5015789;28;20435;-42
2022/06/05 07:36:58;;;;;;;16.00;11.57;;;;;;;20.23;69.19;101307.53;5017969;28;20130;-44
2022/06/05 07:39:23;;;;;;;16.00;11.38;;;;;;;20.31;69.06;101307.31;5015091;28;20021;-47
2022/06/05 07:41:48;;;;;;;18.08;11.88;;;;;;;20.45;68.55;101307.22;5023014;28;20113;-48
2022/06/05 07:44:15;;;;;;;18.27;11.32;;;;;;;20.51;67.42;101298.25;5016003;28;20030;-47
2022/06/05 07:46:41;;;;;;;22.73;11.25;;;;;;;20.66;68.09;101303.41;5017716;28;20567;-42
2022/06/05 07:49:07;;;;;;;25.13;11.27;;;;;;;20.66;67.63;101289.84;5018364;28;20120;-43
2022/06/05 07:54:27;;;;;;;17.02;11.32;;;;;;;20.86;68.88;101290.56;5013108;28;20088;-45
2022/06/05 07:56:56;;;;;;;15.35;11.73;;;;;;;20.97;69.34;101288.19;5014666;28;20476;-48
2022/06/05 07:59:22;;;;;;;18.98;11.20;;;;;;;21.00;66.80;101283.16;5005528;28;20120;-42
2022/06/05 08:01:48;;;;;;;15.07;11.43;;;;;;;21.01;67.64;101276.69;5014740;28;20036;-47
2022/06/05 08:04:13;;;;;;;18.17;11.60;;;;;;;21.13;66.27;101276.81;5026218;28;20026;-47
2022/06/05 08:06:39;;;;;;;15.02;10.75;;;;;;;21.33;67.62;101270.34;5021303;28;20112;-45
2022/06/05 08:09:06;;;;;;;15.43;11.18;;;;;;;21.37;65.04;101271.59;5007777;28;20182;-46
2022/06/05 08:11:32;;;;;;;15.90;11.02;;;;;;;21.45;65.50;101260.41;5011900;28;20048;-45
2022/06/05 08:13:58;;;;;;;19.20;11.35;;;;;;;21.62;66.56;101258.00;5013883;28;20459;-44
2022/06/05 08:16:23;;;;;;;19.33;11.60;;;;;;;21.64;64.51;101246.88;5013954;28;20022;-46
2022/06/05 08:18:51;;;;;;;15.93;10.95;;;;;;;21.68;65.11;101254.38;5012823;28;20283;-47
2022/06/05 08:21:18;;;;;;;17.23;11.50;;;;;;;21.72;65.17;101252.88;5015499;28;20033;-45
2022/06/05 08:23:43;;;;;;;18.42;11.40;;;;;;;21.70;64.59;101254.97;5018766;28;20076;-49
2022/06/05 08:26:09;;;;;;;17.70;11.40;;;;;;;21.92;65.87;101260.00;5019053;28;20480;-59
2022/06/05 08:28:34;;;;;;;22.75;12.13;;;;;;;22.08;64.10;101255.81;5017492;28;20057;-48
2022/06/05 08:31:00;;;;;;;19.23;11.82;;;;;;;22.28;64.93;101245.53;5013359;28;20036;-50
2022/06/05 08:33:25;;;;;;;17.50;11.15;;;;;;;22.51;63.34;101252.16;5014303;28;20025;-48
2022/06/05 08:35:50;;;;;;;14.27;11.13;;;;;;;22.62;63.35;101248.63;5017693;28;20033;-46
2022/06/05 08:41:26;;;;;;;20.13;12.15;;;;;;;22.79;63.30;101246.09;5017486;28;20554;-46
2022/06/05 08:43:59;;;;;;;19.27;11.88;;;;;;;22.84;63.04;101248.94;5011574;28;20021;-47
2022/06/05 08:46:50;;;;;;;19.95;12.63;;;;;;;22.91;63.04;101246.97;5016177;28;20029;-45
2022/06/05 08:49:55;;;;;;;16.55;12.38;;;;;;;23.05;62.89;101246.75;5014459;28;20100;-45
2022/06/05 08:52:30;;;;;;;18.52;12.05;;;;;;;23.16;61.87;101253.31;5015547;28;20440;-46
2022/06/05 08:55:05;;;;;;;15.18;12.15;;;;;;;23.27;61.05;101250.59;5018998;28;20432;-47
2022/06/05 08:57:42;;;;;;;20.40;12.48;;;;;;;23.23;61.61;101245.84;5018623;28;20021;-45
2022/06/05 09:00:14;;;;;;;14.63;11.63;;;;;;;23.36;61.88;101245.63;5016877;28;20044;-49
2022/06/05 09:02:50;;;;;;;18.45;12.52;;;;;;;23.37;60.79;101262.78;5028227;28;20029;-48
2022/06/05 09:05:31;;;;;;;20.95;12.10;;;;;;;23.37;61.28;101258.19;5037835;28;20020;-49
2022/06/05 09:08:01;;;;;;;16.88;11.68;;;;;;;23.28;60.35;101254.13;5037482;28;20231;-45
2022/06/05 09:10:44;;;;;;;14.43;11.65;;;;;;;23.28;61.05;101265.03;5038729;28;20053;-48
2022/06/05 09:13:26;;;;;;;14.25;11.77;;;;;;;23.02;61.45;101260.84;5033051;28;20371;-47
2022/06/05 09:16:02;;;;;;;14.32;11.05;;;;;;;22.94;63.91;101261.16;5011662;28;20013;-48
2022/06/05 09:18:39;;;;;;;15.50;11.63;;;;;;;22.81;62.33;101260.31;5037469;28;20032;-48
2022/06/05 09:21:19;;;;;;;16.73;12.32;;;;;;;22.62;63.71;101256.81;5038442;28;20475;-46
2022/06/05 09:24:06;;;;;;;16.02;12.55;;;;;;;22.50;63.95;101254.03;5036653;28;20171;-47
2022/06/05 09:26:43;;;;;;;19.23;12.52;;;;;;;22.38;63.91;101246.91;5038191;28;20036;-46
2022/06/05 09:29:18;;;;;;;22.88;12.02;;;;;;;22.24;64.48;101247.03;5036767;28;20115;-48
2022/06/05 09:32:08;;;;;;;15.27;11.93;;;;;;;22.26;66.47;101244.91;5037150;28;20033;-45
2022/06/05 09:34:47;;;;;;;14.87;12.13;;;;;;;22.31;66.55;101242.38;5035547;28;20068;-46
2022/06/05 09:37:56;;;;;;;16.77;12.05;;;;;;;22.34;66.08;101238.38;5031009;28;20166;-44
2022/06/05 09:40:36;;;;;;;18.30;12.32;;;;;;;22.23;66.47;101237.19;5027855;28;20048;-47
2022/06/05 09:43:13;;;;;;;18.93;13.40;;;;;;;22.12;66.34;101241.53;5031034;28;20035;-46
2022/06/05 09:46:08;;;;;;;17.33;12.18;;;;;;;22.01;67.33;101241.47;5037844;28;20197;-46
2022/06/05 09:48:48;;;;;;;16.02;13.00;;;;;;;21.93;67.18;101234.47;5016512;28;20032;-45
2022/06/05 09:51:16;;;;;;;17.25;12.75;;;;;;;21.87;67.65;101229.91;5037753;28;20021;-47
2022/06/05 09:54:00;;;;;;;17.95;13.02;;;;;;;21.87;68.80;101228.03;5037833;28;20029;-46
2022/06/05 09:58:24;;;;;;;17.70;13.35;;;;;;;21.84;69.01;101220.31;5037001;28;20021;-45
2022/06/05 09:59:39;;;;;;;24.90;13.50;;;;;;;21.73;69.47;101213.75;5036432;28;20052;-48
2022/06/05 10:02:07;;;;;;;17.00;13.75;;;;;;;21.71;70.15;101220.50;5036566;28;20096;-47
2022/06/05 10:04:34;;;;;;;22.40;13.15;;;;;;;21.64;70.67;101214.28;5036895;28;20043;-49
2022/06/05 10:07:06;;;;;;;23.98;14.85;;;;;;;21.57;70.64;101208.91;5037035;28;20057;-45
2022/06/05 10:09:32;;;;;;;21.23;14.32;;;;;;;21.51;71.58;101207.09;5037034;28;20036;-47
2022/06/05 10:12:03;;;;;;;20.38;13.45;;;;;;;21.51;71.27;101201.69;5036884;28;20021;-46
2022/06/05 10:14:52;;;;;;;18.42;13.73;;;;;;;21.51;71.14;101194.34;5028095;28;20019;-46
2022/06/05 10:17:56;;;;;;;20.48;13.80;;;;;;;21.52;71.47;101193.31;5036536;28;20017;-46
2022/06/05 10:20:40;;;;;;;19.45;13.80;;;;;;;21.54;71.46;101199.34;5036346;28;20131;-45
2022/06/05 10:23:22;;;;;;;17.50;13.88;;;;;;;21.49;73.40;101196.47;5036152;28;20254;-46
2022/06/05 10:26:09;;;;;;;21.30;14.23;;;;;;;21.45;73.35;101187.03;5037167;28;20506;-45
2022/06/05 10:28:38;;;;;;;18.27;14.57;;;;;;;21.41;74.17;101183.13;5035449;28;20146;-49
2022/06/05 10:31:07;;;;;;;20.15;14.02;;;;;;;21.48;73.91;101183.09;5036886;28;20477;-47
2022/06/05 10:33:39;;;;;;;18.15;13.68;;;;;;;21.52;73.21;101173.41;5036088;28;20245;-48
2022/06/05 10:36:10;;;;;;;19.05;13.93;;;;;;;21.59;74.07;101175.03;5036311;28;20442;-45
2022/06/05 10:39:04;;;;;;;19.90;14.98;;;;;;;21.67;75.03;101179.31;5036632;28;20472;-47
2022/06/05 10:41:30;;;;;;;20.98;15.38;;;;;;;21.81;76.22;101180.00;5025912;28;20040;-46
2022/06/05 10:44:23;;;;;;;22.23;15.50;;;;;;;21.92;76.09;101186.56;5026859;28;20664;-48
2022/06/05 10:47:28;;;;;;;24.70;15.35;;;;;;;21.96;78.33;101182.31;5016574;28;20271;-45
2022/06/05 10:50:02;;;;;;;22.73;15.50;;;;;;;21.89;78.22;101176.94;5037038;28;20033;-47
2022/06/05 10:52:34;;;;;;;21.02;15.07;;;;;;;21.91;80.08;101179.44;5036542;28;20025;-50
2022/06/05 10:55:40;;;;;;;27.13;16.73;;;;;;;21.93;80.01;101177.34;5036098;28;20443;-46
2022/06/05 10:58:23;;;;;;;22.27;16.30;;;;;;;21.89;79.23;101179.69;5026022;28;20040;-46
2022/06/05 11:01:01;;;;;;;22.98;16.67;;;;;;;21.80;80.55;101179.16;5027417;28;20021;-45
2022/06/05 11:03:39;;;;;;;23.33;16.58;;;;;;;21.72;81.23;101175.91;5022136;28;20400;-45
2022/06/05 11:06:27;;;;;;;21.83;17.25;;;;;;;21.65;82.75;101175.19;5032384;28;20702;-45
2022/06/05 11:09:30;;;;;;;22.58;17.38;;;;;;;21.55;82.43;101165.66;5015879;28;20021;-44
2022/06/05 11:15:00;;;;;;;24.58;18.55;;;;;;;21.24;85.60;101167.41;5016323;28;20095;-48
2022/06/05 11:18:00;;;;;;;25.58;17.55;;;;;;;21.13;86.71;101161.88;5015485;28;20491;-45
2022/06/05 11:20:26;;;;;;;22.55;17.63;;;;;;;20.98;89.14;101163.06;5012943;28;20082;-46
2022/06/05 11:23:00;;;;;;;27.58;17.92;;;;;;;20.89;89.76;101163.56;5016424;28;20403;-46
2022/06/05 11:25:30;;;;;;;29.95;18.25;;;;;;;20.76;90.39;101164.53;5016097;28;20104;-47
2022/06/05 11:28:23;;;;;;;25.30;17.73;;;;;;;20.71;89.86;101158.94;5015341;28;20541;-44
2022/06/05 11:31:03;;;;;;;27.13;18.15;;;;;;;20.58;92.23;101154.38;5014601;28;20021;-48
2022/06/05 11:33:32;;;;;;;26.02;19.27;;;;;;;20.50;94.29;101155.47;5011483;28;20093;-46
2022/06/05 11:36:20;;;;;;;30.00;19.42;;;;;;;20.42;94.89;101144.91;5015715;28;20119;-47
2022/06/05 11:38:54;;;;;;;37.95;20.80;;;;;;;20.32;98.80;101153.53;5016195;28;20021;-46
2022/06/05 11:41:27;;;;;;;35.60;21.35;;;;;;;20.24;100.00;101146.47;5028182;28;20076;-44
2022/06/05 11:44:26;;;;;;;32.95;22.95;;;;;;;20.23;100.00;101154.81;5013076;28;20080;-45
2022/06/05 11:47:01;;;;;;;35.60;24.00;;;;;;;20.17;100.00;101145.69;5015773;28;20345;-45
2022/06/05 11:50:04;;;;;;;34.08;22.02;;;;;;;20.15;100.00;101146.97;5020138;28;20178;-48